sensor_id;sensor_type;location;lat;lon;timestamp;P1;durP1;ratioP1;P2;durP2;ratioP2
30181;SDS011;16990;49.056;9.240;2022-11-20T00:00:15;13.52;;;9.27;;
30181;SDS011;16990;49.056;9.240;2022-11-20T00:02:42;15.82;;;10.13;;
30181;SDS011;16990;49.056;9.240;2022-11-20T00:05:10;16.67;;;10.13;;
30181;SDS011;16990;49.056;9.240;2022-11-20T00:07:37;17.77;;;10.07;;
30181;SDS011;16990;49.056;9.240;2022-11-20T00:10:04;16.30;;;10.40;;
30181;SDS011;16990;49.056;9.240;2022-11-20T00:12:31;19.83;;;10.77;;
30181;SDS011;16990;49.056;9.240;2022-11-20T00:14:58;18.27;;;10.73;;
30181;SDS011;16990;49.056;9.240;2022-11-20T00:17:24;18.40;;;11.18;;
30181;SDS011;16990;49.056;9.240;2022-11-20T00:19:51;35.33;;;16.15;;
30181;SDS011;16990;49.056;9.240;2022-11-20T00:22:19;24.05;;;12.70;;
30181;SDS011;16990;49.056;9.240;2022-11-20T00:24:46;21.23;;;12.43;;
30181;SDS011;16990;49.056;9.240;2022-11-20T00:27:12;21.98;;;12.88;;
30181;SDS011;16990;49.056;9.240;2022-11-20T00:29:39;17.98;;;10.90;;
30181;SDS011;16990;49.056;9.240;2022-11-20T00:32:06;18.52;;;11.75;;
30181;SDS011;16990;49.056;9.240;2022-11-20T00:34:32;18.15;;;11.30;;
30181;SDS011;16990;49.056;9.240;2022-11-20T00:36:59;18.35;;;11.10;;
30181;SDS011;16990;49.056;9.240;2022-11-20T00:39:27;20.73;;;11.52;;
30181;SDS011;16990;49.056;9.240;2022-11-20T00:41:54;19.90;;;10.98;;
30181;SDS011;16990;49.056;9.240;2022-11-20T00:44:21;19.08;;;11.45;;
30181;SDS011;16990;49.056;9.240;2022-11-20T00:46:47;19.08;;;11.63;;
30181;SDS011;16990;49.056;9.240;2022-11-20T00:49:14;22.10;;;11.75;;
30181;SDS011;16990;49.056;9.240;2022-11-20T00:51:40;22.95;;;11.50;;
30181;SDS011;16990;49.056;9.240;2022-11-20T00:54:07;24.55;;;12.02;;
30181;SDS011;16990;49.056;9.240;2022-11-20T00:56:35;24.30;;;12.80;;
30181;SDS011;16990;49.056;9.240;2022-11-20T00:59:02;29.35;;;15.45;;
30181;SDS011;16990;49.056;9.240;2022-11-20T01:01:29;30.50;;;14.57;;
30181;SDS011;16990;49.056;9.240;2022-11-20T01:03:56;31.60;;;14.48;;
30181;SDS011;16990;49.056;9.240;2022-11-20T01:06:25;30.33;;;14.30;;
30181;SDS011;16990;49.056;9.240;2022-11-20T01:08:53;23.05;;;14.05;;
30181;SDS011;16990;49.056;9.240;2022-11-20T01:11:22;30.00;;;15.48;;
30181;SDS011;16990;49.056;9.240;2022-11-20T01:13:52;36.22;;;17.35;;
30181;SDS011;16990;49.056;9.240;2022-11-20T01:16:20;37.80;;;16.23;;
30181;SDS011;16990;49.056;9.240;2022-11-20T01:18:49;28.42;;;16.55;;
30181;SDS011;16990;49.056;9.240;2022-11-20T01:21:19;28.95;;;16.58;;
30181;SDS011;16990;49.056;9.240;2022-11-20T01:23:47;28.67;;;15.02;;
30181;SDS011;16990;49.056;9.240;2022-11-20T01:26:16;28.77;;;15.70;;
30181;SDS011;16990;49.056;9.240;2022-11-20T01:28:44;29.58;;;17.00;;
30181;SDS011;16990;49.056;9.240;2022-11-20T01:31:13;28.98;;;16.13;;
30181;SDS011;16990;49.056;9.240;2022-11-20T01:33:43;30.02;;;15.05;;
30181;SDS011;16990;49.056;9.240;2022-11-20T01:36:10;28.92;;;16.20;;
30181;SDS011;16990;49.056;9.240;2022-11-20T01:38:38;27.95;;;13.88;;
30181;SDS011;16990;49.056;9.240;2022-11-20T01:41:06;30.40;;;16.80;;
30181;SDS011;16990;49.056;9.240;2022-11-20T01:43:33;25.25;;;15.25;;
30181;SDS011;16990;49.056;9.240;2022-11-20T01:46:01;28.63;;;15.85;;
30181;SDS011;16990;49.056;9.240;2022-11-20T01:48:33;25.33;;;14.82;;
30181;SDS011;16990;49.056;9.240;2022-11-20T01:51:06;30.25;;;15.10;;
30181;SDS011;16990;49.056;9.240;2022-11-20T01:53:38;27.15;;;14.38;;
30181;SDS011;16990;49.056;9.240;2022-11-20T01:56:05;28.67;;;15.80;;
30181;SDS011;16990;49.056;9.240;2022-11-20T01:58:35;27.38;;;15.50;;
30181;SDS011;16990;49.056;9.240;2022-11-20T02:01:07;31.02;;;15.43;;
30181;SDS011;16990;49.056;9.240;2022-11-20T02:03:35;29.38;;;14.57;;
30181;SDS011;16990;49.056;9.240;2022-11-20T02:06:04;32.30;;;16.25;;
30181;SDS011;16990;49.056;9.240;2022-11-20T02:08:36;24.52;;;14.27;;
30181;SDS011;16990;49.056;9.240;2022-11-20T02:11:04;28.00;;;16.25;;
30181;SDS011;16990;49.056;9.240;2022-11-20T02:13:31;29.30;;;16.17;;
30181;SDS011;16990;49.056;9.240;2022-11-20T02:16:09;25.17;;;14.77;;
30181;SDS011;16990;49.056;9.240;2022-11-20T02:18:39;29.30;;;15.95;;
30181;SDS011;16990;49.056;9.240;2022-11-20T02:21:07;29.52;;;15.88;;
30181;SDS011;16990;49.056;9.240;2022-11-20T02:24:03;27.42;;;16.02;;
30181;SDS011;16990;49.056;9.240;2022-11-20T02:26:33;25.35;;;14.50;;
30181;SDS011;16990;49.056;9.240;2022-11-20T02:29:04;21.75;;;13.57;;
30181;SDS011;16990;49.056;9.240;2022-11-20T02:31:35;29.55;;;15.40;;
30181;SDS011;16990;49.056;9.240;2022-11-20T02:34:03;29.27;;;15.32;;
30181;SDS011;16990;49.056;9.240;2022-11-20T02:36:30;23.13;;;14.25;;
30181;SDS011;16990;49.056;9.240;2022-11-20T02:39:00;22.77;;;13.98;;
30181;SDS011;16990;49.056;9.240;2022-11-20T02:41:32;24.75;;;14.73;;
30181;SDS011;16990;49.056;9.240;2022-11-20T02:44:00;21.38;;;12.95;;
30181;SDS011;16990;49.056;9.240;2022-11-20T02:46:27;26.92;;;13.75;;
30181;SDS011;16990;49.056;9.240;2022-11-20T02:48:53;24.85;;;14.77;;
30181;SDS011;16990;49.056;9.240;2022-11-20T02:51:20;22.75;;;13.13;;
30181;SDS011;16990;49.056;9.240;2022-11-20T02:53:47;21.17;;;14.25;;
30181;SDS011;16990;49.056;9.240;2022-11-20T02:56:14;22.50;;;14.00;;
30181;SDS011;16990;49.056;9.240;2022-11-20T02:58:42;24.38;;;12.88;;
30181;SDS011;16990;49.056;9.240;2022-11-20T03:01:08;25.73;;;13.70;;
30181;SDS011;16990;49.056;9.240;2022-11-20T03:03:35;23.20;;;12.63;;
30181;SDS011;16990;49.056;9.240;2022-11-20T03:06:02;23.83;;;13.65;;
30181;SDS011;16990;49.056;9.240;2022-11-20T03:08:29;23.02;;;13.88;;
30181;SDS011;16990;49.056;9.240;2022-11-20T03:10:55;22.45;;;13.07;;
30181;SDS011;16990;49.056;9.240;2022-11-20T03:13:22;22.98;;;14.60;;
30181;SDS011;16990;49.056;9.240;2022-11-20T03:15:52;22.95;;;13.15;;
30181;SDS011;16990;49.056;9.240;2022-11-20T03:18:19;22.67;;;12.57;;
30181;SDS011;16990;49.056;9.240;2022-11-20T03:20:45;22.98;;;13.20;;
30181;SDS011;16990;49.056;9.240;2022-11-20T03:23:12;23.88;;;12.40;;
30181;SDS011;16990;49.056;9.240;2022-11-20T03:25:38;18.77;;;11.85;;
30181;SDS011;16990;49.056;9.240;2022-11-20T03:28:05;19.17;;;12.05;;
30181;SDS011;16990;49.056;9.240;2022-11-20T03:30:32;23.88;;;12.90;;
30181;SDS011;16990;49.056;9.240;2022-11-20T03:33:00;20.25;;;11.85;;
30181;SDS011;16990;49.056;9.240;2022-11-20T03:35:26;16.90;;;12.15;;
30181;SDS011;16990;49.056;9.240;2022-11-20T03:37:53;20.65;;;11.00;;
30181;SDS011;16990;49.056;9.240;2022-11-20T03:40:20;19.65;;;11.50;;
30181;SDS011;16990;49.056;9.240;2022-11-20T03:42:46;18.20;;;10.65;;
30181;SDS011;16990;49.056;9.240;2022-11-20T03:45:13;17.50;;;11.13;;
30181;SDS011;16990;49.056;9.240;2022-11-20T03:47:41;21.17;;;11.02;;
30181;SDS011;16990;49.056;9.240;2022-11-20T03:50:10;16.27;;;10.45;;
30181;SDS011;16990;49.056;9.240;2022-11-20T03:52:38;15.50;;;10.00;;
30181;SDS011;16990;49.056;9.240;2022-11-20T03:55:05;17.85;;;10.40;;
30181;SDS011;16990;49.056;9.240;2022-11-20T03:57:32;14.45;;;9.57;;
30181;SDS011;16990;49.056;9.240;2022-11-20T03:59:59;15.85;;;10.20;;
30181;SDS011;16990;49.056;9.240;2022-11-20T04:02:26;17.00;;;10.38;;
30181;SDS011;16990;49.056;9.240;2022-11-20T04:04:52;14.95;;;9.25;;
30181;SDS011;16990;49.056;9.240;2022-11-20T04:07:20;15.73;;;9.10;;
30181;SDS011;16990;49.056;9.240;2022-11-20T04:09:47;16.58;;;8.75;;
30181;SDS011;16990;49.056;9.240;2022-11-20T04:12:14;12.55;;;8.93;;
30181;SDS011;16990;49.056;9.240;2022-11-20T04:14:40;12.57;;;8.70;;
30181;SDS011;16990;49.056;9.240;2022-11-20T04:17:07;15.13;;;8.80;;
30181;SDS011;16990;49.056;9.240;2022-11-20T04:19:34;13.60;;;8.40;;
30181;SDS011;16990;49.056;9.240;2022-11-20T04:22:00;13.52;;;7.90;;
30181;SDS011;16990;49.056;9.240;2022-11-20T04:24:28;12.82;;;7.45;;
30181;SDS011;16990;49.056;9.240;2022-11-20T04:26:55;12.55;;;7.03;;
30181;SDS011;16990;49.056;9.240;2022-11-20T04:29:22;10.32;;;7.00;;
30181;SDS011;16990;49.056;9.240;2022-11-20T04:31:48;12.23;;;6.50;;
30181;SDS011;16990;49.056;9.240;2022-11-20T04:34:15;11.57;;;7.10;;
30181;SDS011;16990;49.056;9.240;2022-11-20T04:36:42;10.73;;;6.25;;
30181;SDS011;16990;49.056;9.240;2022-11-20T04:39:11;8.20;;;5.40;;
30181;SDS011;16990;49.056;9.240;2022-11-20T04:41:41;11.35;;;6.57;;
30181;SDS011;16990;49.056;9.240;2022-11-20T04:44:08;10.38;;;6.25;;
30181;SDS011;16990;49.056;9.240;2022-11-20T04:46:35;14.02;;;6.70;;
30181;SDS011;16990;49.056;9.240;2022-11-20T04:49:04;9.55;;;6.20;;
30181;SDS011;16990;49.056;9.240;2022-11-20T04:51:31;11.13;;;6.30;;
30181;SDS011;16990;49.056;9.240;2022-11-20T04:53:58;10.93;;;6.32;;
30181;SDS011;16990;49.056;9.240;2022-11-20T04:56:25;10.38;;;5.90;;
30181;SDS011;16990;49.056;9.240;2022-11-20T04:58:53;9.30;;;5.30;;
30181;SDS011;16990;49.056;9.240;2022-11-20T05:01:21;8.98;;;5.45;;
30181;SDS011;16990;49.056;9.240;2022-11-20T05:03:49;7.13;;;5.10;;
30181;SDS011;16990;49.056;9.240;2022-11-20T05:06:17;12.20;;;5.30;;
30181;SDS011;16990;49.056;9.240;2022-11-20T05:08:45;8.30;;;5.30;;
30181;SDS011;16990;49.056;9.240;2022-11-20T05:11:13;7.18;;;5.30;;
30181;SDS011;16990;49.056;9.240;2022-11-20T05:13:41;7.15;;;5.03;;
30181;SDS011;16990;49.056;9.240;2022-11-20T05:16:10;8.93;;;5.18;;
30181;SDS011;16990;49.056;9.240;2022-11-20T05:18:39;10.88;;;5.80;;
30181;SDS011;16990;49.056;9.240;2022-11-20T05:21:06;7.13;;;5.03;;
30181;SDS011;16990;49.056;9.240;2022-11-20T05:23:33;9.98;;;5.35;;
30181;SDS011;16990;49.056;9.240;2022-11-20T05:26:01;7.95;;;5.30;;
30181;SDS011;16990;49.056;9.240;2022-11-20T05:28:29;9.52;;;5.05;;
30181;SDS011;16990;49.056;9.240;2022-11-20T05:31:03;9.85;;;4.90;;
30181;SDS011;16990;49.056;9.240;2022-11-20T05:33:32;10.15;;;5.32;;
30181;SDS011;16990;49.056;9.240;2022-11-20T05:35:59;10.10;;;5.63;;
30181;SDS011;16990;49.056;9.240;2022-11-20T05:38:26;7.55;;;5.28;;
30181;SDS011;16990;49.056;9.240;2022-11-20T05:40:52;7.97;;;5.45;;
30181;SDS011;16990;49.056;9.240;2022-11-20T05:43:19;9.68;;;4.80;;
30181;SDS011;16990;49.056;9.240;2022-11-20T05:45:51;9.75;;;4.93;;
30181;SDS011;16990;49.056;9.240;2022-11-20T05:48:18;6.85;;;5.03;;
30181;SDS011;16990;49.056;9.240;2022-11-20T05:50:46;8.80;;;4.85;;
30181;SDS011;16990;49.056;9.240;2022-11-20T05:53:13;7.53;;;4.90;;
30181;SDS011;16990;49.056;9.240;2022-11-20T05:55:40;9.32;;;4.82;;
30181;SDS011;16990;49.056;9.240;2022-11-20T05:58:06;6.95;;;4.55;;
30181;SDS011;16990;49.056;9.240;2022-11-20T06:00:33;10.13;;;5.03;;
30181;SDS011;16990;49.056;9.240;2022-11-20T06:03:00;8.50;;;5.15;;
30181;SDS011;16990;49.056;9.240;2022-11-20T06:05:27;14.48;;;5.07;;
30181;SDS011;16990;49.056;9.240;2022-11-20T06:07:55;6.50;;;4.40;;
30181;SDS011;16990;49.056;9.240;2022-11-20T06:10:21;9.43;;;4.80;;
30181;SDS011;16990;49.056;9.240;2022-11-20T06:12:48;8.40;;;4.95;;
30181;SDS011;16990;49.056;9.240;2022-11-20T06:15:15;7.30;;;4.57;;
30181;SDS011;16990;49.056;9.240;2022-11-20T06:17:41;6.25;;;4.28;;
30181;SDS011;16990;49.056;9.240;2022-11-20T06:20:08;5.50;;;4.45;;
30181;SDS011;16990;49.056;9.240;2022-11-20T06:22:36;7.47;;;4.13;;
30181;SDS011;16990;49.056;9.240;2022-11-20T06:25:05;5.90;;;4.25;;
30181;SDS011;16990;49.056;9.240;2022-11-20T06:27:32;6.93;;;4.38;;
30181;SDS011;16990;49.056;9.240;2022-11-20T06:29:58;9.10;;;3.70;;
30181;SDS011;16990;49.056;9.240;2022-11-20T06:32:25;6.53;;;4.63;;
30181;SDS011;16990;49.056;9.240;2022-11-20T06:34:52;5.88;;;3.70;;
30181;SDS011;16990;49.056;9.240;2022-11-20T06:37:18;7.63;;;4.05;;
30181;SDS011;16990;49.056;9.240;2022-11-20T06:39:45;7.40;;;4.05;;
30181;SDS011;16990;49.056;9.240;2022-11-20T06:42:13;8.88;;;4.35;;
30181;SDS011;16990;49.056;9.240;2022-11-20T06:44:40;5.95;;;4.75;;
30181;SDS011;16990;49.056;9.240;2022-11-20T06:47:06;5.63;;;4.05;;
30181;SDS011;16990;49.056;9.240;2022-11-20T06:49:33;7.38;;;4.47;;
30181;SDS011;16990;49.056;9.240;2022-11-20T06:52:02;5.97;;;3.97;;
30181;SDS011;16990;49.056;9.240;2022-11-20T06:54:29;9.30;;;4.15;;
30181;SDS011;16990;49.056;9.240;2022-11-20T06:56:55;5.38;;;3.60;;
30181;SDS011;16990;49.056;9.240;2022-11-20T06:59:23;9.10;;;4.03;;
30181;SDS011;16990;49.056;9.240;2022-11-20T07:01:50;6.82;;;3.65;;
30181;SDS011;16990;49.056;9.240;2022-11-20T07:04:17;8.18;;;4.38;;
30181;SDS011;16990;49.056;9.240;2022-11-20T07:06:43;8.57;;;4.57;;
30181;SDS011;16990;49.056;9.240;2022-11-20T07:09:10;7.95;;;4.60;;
30181;SDS011;16990;49.056;9.240;2022-11-20T07:11:36;7.93;;;4.68;;
30181;SDS011;16990;49.056;9.240;2022-11-20T07:14:03;6.97;;;4.45;;
30181;SDS011;16990;49.056;9.240;2022-11-20T07:16:31;6.78;;;4.50;;
30181;SDS011;16990;49.056;9.240;2022-11-20T07:18:58;7.38;;;5.05;;
30181;SDS011;16990;49.056;9.240;2022-11-20T07:21:25;8.20;;;4.80;;
30181;SDS011;16990;49.056;9.240;2022-11-20T07:23:52;10.05;;;4.28;;
30181;SDS011;16990;49.056;9.240;2022-11-20T07:26:18;16.90;;;4.22;;
30181;SDS011;16990;49.056;9.240;2022-11-20T07:28:45;5.15;;;4.07;;
30181;SDS011;16990;49.056;9.240;2022-11-20T07:31:12;9.93;;;5.32;;
30181;SDS011;16990;49.056;9.240;2022-11-20T07:33:40;6.80;;;4.57;;
30181;SDS011;16990;49.056;9.240;2022-11-20T07:36:07;6.97;;;4.00;;
30181;SDS011;16990;49.056;9.240;2022-11-20T07:38:34;5.28;;;3.92;;
30181;SDS011;16990;49.056;9.240;2022-11-20T07:41:00;5.90;;;3.92;;
30181;SDS011;16990;49.056;9.240;2022-11-20T07:43:27;3.95;;;3.15;;
30181;SDS011;16990;49.056;9.240;2022-11-20T07:45:54;5.93;;;3.70;;
30181;SDS011;16990;49.056;9.240;2022-11-20T07:48:22;5.55;;;3.65;;
30181;SDS011;16990;49.056;9.240;2022-11-20T07:50:52;4.30;;;3.17;;
30181;SDS011;16990;49.056;9.240;2022-11-20T07:53:19;6.18;;;3.90;;
30181;SDS011;16990;49.056;9.240;2022-11-20T07:55:46;4.45;;;3.08;;
30181;SDS011;16990;49.056;9.240;2022-11-20T07:58:13;6.75;;;3.65;;
30181;SDS011;16990;49.056;9.240;2022-11-20T08:00:40;4.88;;;2.60;;
30181;SDS011;16990;49.056;9.240;2022-11-20T08:03:07;6.45;;;2.65;;
30181;SDS011;16990;49.056;9.240;2022-11-20T08:05:34;3.33;;;2.65;;
30181;SDS011;16990;49.056;9.240;2022-11-20T08:08:02;7.10;;;2.78;;
30181;SDS011;16990;49.056;9.240;2022-11-20T08:10:29;4.05;;;2.63;;
30181;SDS011;16990;49.056;9.240;2022-11-20T08:12:56;6.95;;;3.78;;
30181;SDS011;16990;49.056;9.240;2022-11-20T08:15:40;6.43;;;2.80;;
30181;SDS011;16990;49.056;9.240;2022-11-20T08:18:07;7.40;;;3.50;;
30181;SDS011;16990;49.056;9.240;2022-11-20T08:20:36;6.43;;;3.00;;
30181;SDS011;16990;49.056;9.240;2022-11-20T08:23:04;7.03;;;3.33;;
30181;SDS011;16990;49.056;9.240;2022-11-20T08:25:32;7.07;;;3.80;;
30181;SDS011;16990;49.056;9.240;2022-11-20T08:28:01;4.53;;;3.17;;
30181;SDS011;16990;49.056;9.240;2022-11-20T08:30:29;6.78;;;3.17;;
30181;SDS011;16990;49.056;9.240;2022-11-20T08:33:00;4.53;;;2.97;;
30181;SDS011;16990;49.056;9.240;2022-11-20T08:35:27;4.30;;;2.92;;
30181;SDS011;16990;49.056;9.240;2022-11-20T08:37:54;5.07;;;3.20;;
30181;SDS011;16990;49.056;9.240;2022-11-20T08:40:22;11.88;;;4.30;;
30181;SDS011;16990;49.056;9.240;2022-11-20T08:42:49;6.13;;;3.17;;
30181;SDS011;16990;49.056;9.240;2022-11-20T08:45:17;2.90;;;2.58;;
30181;SDS011;16990;49.056;9.240;2022-11-20T08:47:44;5.45;;;3.58;;
30181;SDS011;16990;49.056;9.240;2022-11-20T08:50:12;6.43;;;3.70;;
30181;SDS011;16990;49.056;9.240;2022-11-20T08:52:40;4.63;;;2.90;;
30181;SDS011;16990;49.056;9.240;2022-11-20T08:55:07;4.32;;;2.53;;
30181;SDS011;16990;49.056;9.240;2022-11-20T08:57:36;4.45;;;2.20;;
30181;SDS011;16990;49.056;9.240;2022-11-20T09:00:03;2.65;;;2.45;;
30181;SDS011;16990;49.056;9.240;2022-11-20T09:02:31;2.75;;;2.10;;
30181;SDS011;16990;49.056;9.240;2022-11-20T09:04:59;2.10;;;1.90;;
30181;SDS011;16990;49.056;9.240;2022-11-20T09:07:27;4.55;;;2.58;;
30181;SDS011;16990;49.056;9.240;2022-11-20T09:09:54;15.25;;;3.00;;
30181;SDS011;16990;49.056;9.240;2022-11-20T09:12:21;4.15;;;2.47;;
30181;SDS011;16990;49.056;9.240;2022-11-20T09:14:49;3.83;;;2.22;;
30181;SDS011;16990;49.056;9.240;2022-11-20T09:17:15;4.97;;;2.20;;
30181;SDS011;16990;49.056;9.240;2022-11-20T09:19:42;2.92;;;1.95;;
30181;SDS011;16990;49.056;9.240;2022-11-20T09:22:09;8.30;;;2.20;;
30181;SDS011;16990;49.056;9.240;2022-11-20T09:24:35;3.42;;;1.80;;
30181;SDS011;16990;49.056;9.240;2022-11-20T09:27:03;5.55;;;1.80;;
30181;SDS011;16990;49.056;9.240;2022-11-20T09:29:30;3.47;;;2.67;;
30181;SDS011;16990;49.056;9.240;2022-11-20T09:31:58;3.30;;;2.10;;
30181;SDS011;16990;49.056;9.240;2022-11-20T09:34:25;5.78;;;3.20;;
30181;SDS011;16990;49.056;9.240;2022-11-20T09:36:52;2.72;;;2.22;;
30181;SDS011;16990;49.056;9.240;2022-11-20T09:39:18;4.65;;;2.33;;
30181;SDS011;16990;49.056;9.240;2022-11-20T09:41:53;7.35;;;3.28;;
30181;SDS011;16990;49.056;9.240;2022-11-20T09:44:32;6.22;;;4.05;;
30181;SDS011;16990;49.056;9.240;2022-11-20T09:47:08;6.63;;;4.32;;
30181;SDS011;16990;49.056;9.240;2022-11-20T09:49:49;6.50;;;4.55;;
30181;SDS011;16990;49.056;9.240;2022-11-20T09:52:31;8.32;;;4.47;;
30181;SDS011;16990;49.056;9.240;2022-11-20T09:55:04;7.93;;;5.75;;
30181;SDS011;16990;49.056;9.240;2022-11-20T09:57:36;9.38;;;6.28;;
30181;SDS011;16990;49.056;9.240;2022-11-20T10:00:09;7.65;;;4.70;;
30181;SDS011;16990;49.056;9.240;2022-11-20T10:02:41;11.65;;;5.85;;
30181;SDS011;16990;49.056;9.240;2022-11-20T10:05:12;7.75;;;4.65;;
30181;SDS011;16990;49.056;9.240;2022-11-20T10:07:46;7.20;;;4.97;;
30181;SDS011;16990;49.056;9.240;2022-11-20T10:10:21;7.93;;;5.57;;
30181;SDS011;16990;49.056;9.240;2022-11-20T10:13:01;9.55;;;3.97;;
30181;SDS011;16990;49.056;9.240;2022-11-20T10:15:38;5.47;;;3.92;;
30181;SDS011;16990;49.056;9.240;2022-11-20T10:18:19;10.73;;;4.57;;
30181;SDS011;16990;49.056;9.240;2022-11-20T10:20:58;5.85;;;4.68;;
30181;SDS011;16990;49.056;9.240;2022-11-20T10:23:45;6.32;;;4.45;;
30181;SDS011;16990;49.056;9.240;2022-11-20T10:26:26;5.53;;;3.83;;
30181;SDS011;16990;49.056;9.240;2022-11-20T10:29:09;5.53;;;3.58;;
30181;SDS011;16990;49.056;9.240;2022-11-20T10:34:12;5.63;;;3.15;;
30181;SDS011;16990;49.056;9.240;2022-11-20T10:36:46;13.93;;;6.47;;
30181;SDS011;16990;49.056;9.240;2022-11-20T10:39:22;9.07;;;5.63;;
30181;SDS011;16990;49.056;9.240;2022-11-20T10:41:56;10.25;;;5.30;;
30181;SDS011;16990;49.056;9.240;2022-11-20T10:44:25;5.97;;;3.85;;
30181;SDS011;16990;49.056;9.240;2022-11-20T10:47:12;6.60;;;3.42;;
30181;SDS011;16990;49.056;9.240;2022-11-20T10:49:44;6.93;;;3.72;;
30181;SDS011;16990;49.056;9.240;2022-11-20T10:52:16;14.23;;;4.88;;
30181;SDS011;16990;49.056;9.240;2022-11-20T10:54:53;4.55;;;3.47;;
30181;SDS011;16990;49.056;9.240;2022-11-20T11:00:04;4.30;;;3.45;;
30181;SDS011;16990;49.056;9.240;2022-11-20T11:02:34;6.97;;;4.00;;
30181;SDS011;16990;49.056;9.240;2022-11-20T11:05:10;5.57;;;3.90;;
30181;SDS011;16990;49.056;9.240;2022-11-20T11:07:44;6.78;;;4.50;;
30181;SDS011;16990;49.056;9.240;2022-11-20T11:10:16;5.50;;;3.15;;
30181;SDS011;16990;49.056;9.240;2022-11-20T11:12:46;7.68;;;3.63;;
30181;SDS011;16990;49.056;9.240;2022-11-20T11:15:14;3.13;;;2.60;;
30181;SDS011;16990;49.056;9.240;2022-11-20T11:17:52;8.98;;;4.43;;
30181;SDS011;16990;49.056;9.240;2022-11-20T11:20:21;5.90;;;3.63;;
30181;SDS011;16990;49.056;9.240;2022-11-20T11:22:49;5.43;;;2.90;;
30181;SDS011;16990;49.056;9.240;2022-11-20T11:25:22;3.67;;;2.90;;
30181;SDS011;16990;49.056;9.240;2022-11-20T11:27:50;4.07;;;3.22;;
30181;SDS011;16990;49.056;9.240;2022-11-20T11:30:20;6.50;;;3.95;;
30181;SDS011;16990;49.056;9.240;2022-11-20T11:32:47;11.90;;;4.38;;
30181;SDS011;16990;49.056;9.240;2022-11-20T11:35:26;8.80;;;3.92;;
30181;SDS011;16990;49.056;9.240;2022-11-20T11:37:54;6.70;;;4.10;;
30181;SDS011;16990;49.056;9.240;2022-11-20T11:40:30;5.97;;;3.15;;
30181;SDS011;16990;49.056;9.240;2022-11-20T11:43:00;6.93;;;4.10;;
30181;SDS011;16990;49.056;9.240;2022-11-20T11:45:29;9.90;;;4.38;;
30181;SDS011;16990;49.056;9.240;2022-11-20T11:47:55;8.30;;;3.88;;
30181;SDS011;16990;49.056;9.240;2022-11-20T11:50:27;14.75;;;4.07;;
30181;SDS011;16990;49.056;9.240;2022-11-20T11:52:59;5.90;;;3.60;;
30181;SDS011;16990;49.056;9.240;2022-11-20T11:55:35;13.63;;;4.00;;
30181;SDS011;16990;49.056;9.240;2022-11-20T11:58:08;6.68;;;4.25;;
30181;SDS011;16990;49.056;9.240;2022-11-20T12:00:38;7.80;;;3.90;;
30181;SDS011;16990;49.056;9.240;2022-11-20T12:03:09;10.93;;;4.13;;
30181;SDS011;16990;49.056;9.240;2022-11-20T12:05:44;9.75;;;3.47;;
30181;SDS011;16990;49.056;9.240;2022-11-20T12:08:18;7.53;;;4.40;;
30181;SDS011;16990;49.056;9.240;2022-11-20T12:13:20;13.60;;;5.63;;
30181;SDS011;16990;49.056;9.240;2022-11-20T12:15:52;11.95;;;5.65;;
30181;SDS011;16990;49.056;9.240;2022-11-20T12:18:20;8.93;;;3.20;;
30181;SDS011;16990;49.056;9.240;2022-11-20T12:20:53;10.18;;;3.38;;
30181;SDS011;16990;49.056;9.240;2022-11-20T12:23:28;6.05;;;2.65;;
30181;SDS011;16990;49.056;9.240;2022-11-20T12:26:07;9.57;;;3.72;;
30181;SDS011;16990;49.056;9.240;2022-11-20T12:28:43;9.30;;;3.85;;
30181;SDS011;16990;49.056;9.240;2022-11-20T12:31:23;8.73;;;3.58;;
30181;SDS011;16990;49.056;9.240;2022-11-20T12:34:07;5.05;;;3.03;;
30181;SDS011;16990;49.056;9.240;2022-11-20T12:37:02;8.57;;;3.10;;
30181;SDS011;16990;49.056;9.240;2022-11-20T12:39:40;7.72;;;2.88;;
30181;SDS011;16990;49.056;9.240;2022-11-20T12:42:20;4.00;;;2.55;;
30181;SDS011;16990;49.056;9.240;2022-11-20T12:45:22;5.70;;;2.15;;
30181;SDS011;16990;49.056;9.240;2022-11-20T12:48:21;6.32;;;2.55;;
30181;SDS011;16990;49.056;9.240;2022-11-20T12:51:01;8.00;;;2.03;;
30181;SDS011;16990;49.056;9.240;2022-11-20T12:53:47;8.10;;;3.00;;
30181;SDS011;16990;49.056;9.240;2022-11-20T12:56:27;19.80;;;8.52;;
30181;SDS011;16990;49.056;9.240;2022-11-20T12:59:08;11.35;;;3.63;;
30181;SDS011;16990;49.056;9.240;2022-11-20T13:01:50;8.20;;;3.05;;
30181;SDS011;16990;49.056;9.240;2022-11-20T13:04:34;12.77;;;4.93;;
30181;SDS011;16990;49.056;9.240;2022-11-20T13:07:13;20.58;;;6.32;;
30181;SDS011;16990;49.056;9.240;2022-11-20T13:09:42;18.65;;;7.60;;
30181;SDS011;16990;49.056;9.240;2022-11-20T13:12:13;12.70;;;3.10;;
30181;SDS011;16990;49.056;9.240;2022-11-20T13:14:45;23.50;;;7.43;;
30181;SDS011;16990;49.056;9.240;2022-11-20T13:17:19;42.90;;;12.07;;
30181;SDS011;16990;49.056;9.240;2022-11-20T13:19:53;22.23;;;8.75;;
30181;SDS011;16990;49.056;9.240;2022-11-20T13:22:24;24.20;;;7.20;;
30181;SDS011;16990;49.056;9.240;2022-11-20T13:24:53;10.20;;;3.72;;
30181;SDS011;16990;49.056;9.240;2022-11-20T13:27:20;11.75;;;3.00;;
30181;SDS011;16990;49.056;9.240;2022-11-20T13:29:59;7.30;;;2.83;;
30181;SDS011;16990;49.056;9.240;2022-11-20T13:32:28;7.38;;;3.13;;
30181;SDS011;16990;49.056;9.240;2022-11-20T13:34:58;10.80;;;3.65;;
30181;SDS011;16990;49.056;9.240;2022-11-20T13:37:30;6.63;;;3.45;;
30181;SDS011;16990;49.056;9.240;2022-11-20T13:40:20;12.95;;;3.10;;
30181;SDS011;16990;49.056;9.240;2022-11-20T13:42:54;8.38;;;2.58;;
30181;SDS011;16990;49.056;9.240;2022-11-20T13:45:23;6.05;;;2.30;;
30181;SDS011;16990;49.056;9.240;2022-11-20T13:47:51;6.65;;;2.63;;
30181;SDS011;16990;49.056;9.240;2022-11-20T13:50:21;3.83;;;2.13;;
30181;SDS011;16990;49.056;9.240;2022-11-20T13:52:58;6.75;;;2.67;;
30181;SDS011;16990;49.056;9.240;2022-11-20T13:55:31;8.88;;;2.45;;
30181;SDS011;16990;49.056;9.240;2022-11-20T13:58:15;8.50;;;3.08;;
30181;SDS011;16990;49.056;9.240;2022-11-20T14:00:55;5.22;;;2.65;;
30181;SDS011;16990;49.056;9.240;2022-11-20T14:03:28;12.63;;;3.67;;
30181;SDS011;16990;49.056;9.240;2022-11-20T14:05:58;6.95;;;2.92;;
30181;SDS011;16990;49.056;9.240;2022-11-20T14:08:31;8.15;;;2.20;;
30181;SDS011;16990;49.056;9.240;2022-11-20T14:11:12;6.15;;;1.75;;
30181;SDS011;16990;49.056;9.240;2022-11-20T14:13:50;7.60;;;1.92;;
30181;SDS011;16990;49.056;9.240;2022-11-20T14:16:23;4.22;;;2.00;;
30181;SDS011;16990;49.056;9.240;2022-11-20T14:18:51;3.10;;;1.55;;
30181;SDS011;16990;49.056;9.240;2022-11-20T14:21:21;6.20;;;2.00;;
30181;SDS011;16990;49.056;9.240;2022-11-20T14:23:51;4.70;;;1.83;;
30181;SDS011;16990;49.056;9.240;2022-11-20T14:26:20;5.57;;;2.10;;
30181;SDS011;16990;49.056;9.240;2022-11-20T14:28:47;3.80;;;1.80;;
30181;SDS011;16990;49.056;9.240;2022-11-20T14:31:18;3.33;;;1.65;;
30181;SDS011;16990;49.056;9.240;2022-11-20T14:33:49;11.50;;;2.33;;
30181;SDS011;16990;49.056;9.240;2022-11-20T14:36:17;6.50;;;1.73;;
30181;SDS011;16990;49.056;9.240;2022-11-20T14:38:46;9.68;;;3.85;;
30181;SDS011;16990;49.056;9.240;2022-11-20T14:41:16;4.38;;;1.63;;
30181;SDS011;16990;49.056;9.240;2022-11-20T14:43:46;4.00;;;1.80;;
30181;SDS011;16990;49.056;9.240;2022-11-20T14:46:16;4.32;;;1.63;;
30181;SDS011;16990;49.056;9.240;2022-11-20T14:48:45;2.72;;;1.85;;
30181;SDS011;16990;49.056;9.240;2022-11-20T14:51:25;4.38;;;1.88;;
30181;SDS011;16990;49.056;9.240;2022-11-20T14:53:55;10.20;;;2.00;;
30181;SDS011;16990;49.056;9.240;2022-11-20T14:56:22;5.07;;;2.00;;
30181;SDS011;16990;49.056;9.240;2022-11-20T14:58:57;7.28;;;1.73;;
30181;SDS011;16990;49.056;9.240;2022-11-20T15:01:27;3.17;;;1.85;;